Time;durP1;ratioP1;P1;durP2;ratioP2;P2;SDS_P1;SDS_P2;PMS_P1;PMS_P2;Temp;Humidity;BMP_temperature;BMP_pressure;BME280_temperature;BME280_humidity;BME280_pressure;Samples;Min_cycle;Max_cycle;Signal;HPM_P1;HPM_P2
2021/04/20 00:01:12;;;;;;;37.10;28.63;;;;;;;;;;5046844;28;39377;-79
2021/04/20 00:03:39;;;;;;;34.57;28.93;;;;;;;;;;5052500;28;37439;-79
2021/04/20 00:06:07;;;;;;;40.30;30.00;;;;;;;;;;5031928;28;37502;-79
2021/04/20 00:08:33;;;;;;;38.77;31.07;;;;;;;;;;5049371;28;36830;-77
2021/04/20 00:11:03;;;;;;;41.57;32.30;;;;;;;;;;5034716;28;39641;-78
2021/04/20 00:13:30;;;;;;;48.57;36.17;;;;;;;;;;5041515;28;47270;-78
2021/04/20 00:15:56;;;;;;;41.67;32.53;;;;;;;;;;5026613;28;39465;-78
2021/04/20 00:18:22;;;;;;;45.80;33.60;;;;;;;;;;5052651;28;37387;-77
2021/04/20 00:20:49;;;;;;;45.10;33.27;;;;;;;;;;5050726;28;39473;-78
2021/04/20 00:23:15;;;;;;;42.97;32.53;;;;;;;;;;5028543;28;38510;-78
2021/04/20 00:25:42;;;;;;;39.87;30.80;;;;;;;;;;5048747;28;39318;-78
2021/04/20 00:28:08;;;;;;;43.53;33.07;;;;;;;;;;5045301;28;37138;-78
2021/04/20 00:30:34;;;;;;;42.13;32.60;;;;;;;;;;5050397;28;38595;-78
2021/04/20 00:33:01;;;;;;;42.47;30.90;;;;;;;;;;5034481;28;38713;-78
2021/04/20 00:35:27;;;;;;;43.37;33.43;;;;;;;;;;5031743;28;46824;-77
2021/04/20 00:37:54;;;;;;;45.73;33.10;;;;;;;;;;5046911;28;37963;-78
2021/04/20 00:40:20;;;;;;;48.57;33.80;;;;;;;;;;5048980;28;38898;-79
2021/04/20 00:42:48;;;;;;;43.80;33.43;;;;;;;;;;5026345;28;40448;-77
2021/04/20 00:45:15;;;;;;;46.53;33.67;;;;;;;;;;5045255;28;38874;-78
2021/04/20 00:47:41;;;;;;;47.80;35.53;;;;;;;;;;5029656;28;37156;-78
2021/04/20 00:50:09;;;;;;;44.83;33.10;;;;;;;;;;5029341;28;39378;-78
2021/04/20 00:52:35;;;;;;;44.63;33.67;;;;;;;;;;5039330;28;39195;-78
2021/04/20 00:55:01;;;;;;;46.87;34.63;;;;;;;;;;5042810;28;39617;-77
2021/04/20 00:57:28;;;;;;;46.63;33.00;;;;;;;;;;5046395;28;48615;-78
2021/04/20 00:59:54;;;;;;;46.30;35.30;;;;;;;;;;5045626;28;39274;-78
2021/04/20 01:02:21;;;;;;;45.33;33.73;;;;;;;;;;5040111;28;39238;-78
2021/04/20 01:04:47;;;;;;;45.37;33.33;;;;;;;;;;5043273;28;39068;-78
2021/04/20 01:07:14;;;;;;;48.33;33.50;;;;;;;;;;5047653;28;39155;-78
2021/04/20 01:09:40;;;;;;;47.03;34.20;;;;;;;;;;5046019;28;37331;-78
2021/04/20 01:12:08;;;;;;;48.90;33.80;;;;;;;;;;5049707;28;38731;-78
2021/04/20 01:14:35;;;;;;;51.93;36.23;;;;;;;;;;5048916;28;38152;-78
2021/04/20 01:17:01;;;;;;;46.77;34.30;;;;;;;;;;5030353;28;38958;-78
2021/04/20 01:19:28;;;;;;;46.57;33.87;;;;;;;;;;5044540;28;49375;-78
2021/04/20 01:21:55;;;;;;;54.63;35.63;;;;;;;;;;5048826;28;37626;-78
2021/04/20 01:24:25;;;;;;;46.77;33.63;;;;;;;;;;5047911;28;38225;-77
2021/04/20 01:26:52;;;;;;;50.77;36.50;;;;;;;;;;5040645;28;35791;-78
2021/04/20 01:29:19;;;;;;;55.03;37.97;;;;;;;;;;5044550;28;39016;-78
2021/04/20 01:31:46;;;;;;;59.67;39.03;;;;;;;;;;5025569;28;39065;-77
2021/04/20 01:34:13;;;;;;;53.07;35.77;;;;;;;;;;5044893;28;38905;-79
2021/04/20 01:36:39;;;;;;;49.70;34.23;;;;;;;;;;5040832;28;37760;-78
2021/04/20 01:39:09;;;;;;;48.23;33.50;;;;;;;;;;5045385;28;39803;-77
2021/04/20 01:41:36;;;;;;;57.50;38.30;;;;;;;;;;5034355;28;39681;-78
2021/04/20 01:44:03;;;;;;;56.97;37.90;;;;;;;;;;5047509;28;38821;-77
2021/04/20 01:46:29;;;;;;;54.80;36.17;;;;;;;;;;5041747;28;37044;-78
2021/04/20 01:48:56;;;;;;;50.30;33.63;;;;;;;;;;5046686;28;37782;-78
2021/04/20 01:51:23;;;;;;;54.50;37.80;;;;;;;;;;5040036;28;38180;-78
2021/04/20 01:53:50;;;;;;;57.17;38.27;;;;;;;;;;5023780;28;40010;-78
2021/04/20 01:56:16;;;;;;;54.00;36.40;;;;;;;;;;5042525;28;37407;-78
2021/04/20 01:58:43;;;;;;;49.03;34.67;;;;;;;;;;5045244;28;39639;-78
2021/04/20 02:01:14;;;;;;;60.47;37.63;;;;;;;;;;5045578;28;39034;-78
2021/04/20 02:03:41;;;;;;;49.77;34.27;;;;;;;;;;5032017;28;39100;-78
2021/04/20 02:06:07;;;;;;;61.93;38.67;;;;;;;;;;5028166;28;36439;-77
2021/04/20 02:08:34;;;;;;;49.60;33.77;;;;;;;;;;5044132;28;38677;-78
2021/04/20 02:11:03;;;;;;;54.10;37.03;;;;;;;;;;5045838;28;39307;-78
2021/04/20 02:13:30;;;;;;;53.20;36.33;;;;;;;;;;5023288;28;46306;-77
2021/04/20 02:15:56;;;;;;;59.13;38.43;;;;;;;;;;5041040;28;37244;-77
2021/04/20 02:18:25;;;;;;;52.87;34.67;;;;;;;;;;5049595;28;38496;-77
2021/04/20 02:20:51;;;;;;;53.67;35.90;;;;;;;;;;5051079;28;40107;-77
2021/04/20 02:23:19;;;;;;;56.07;36.37;;;;;;;;;;5047130;28;40734;-78
2021/04/20 02:25:47;;;;;;;57.93;37.20;;;;;;;;;;5050030;28;37150;-77
2021/04/20 02:28:13;;;;;;;53.27;33.93;;;;;;;;;;5045555;28;39267;-76
2021/04/20 02:30:40;;;;;;;52.77;34.67;;;;;;;;;;5039192;28;37766;-77
2021/04/20 02:33:07;;;;;;;53.10;36.17;;;;;;;;;;5052153;28;37910;-77
2021/04/20 02:35:33;;;;;;;55.43;35.80;;;;;;;;;;5055122;28;37783;-77
2021/04/20 02:37:59;;;;;;;52.40;34.60;;;;;;;;;;5052306;28;38754;-77
2021/04/20 02:40:27;;;;;;;52.43;35.37;;;;;;;;;;5049499;28;39161;-77
2021/04/20 02:42:54;;;;;;;46.57;32.17;;;;;;;;;;5051990;28;38969;-77
2021/04/20 02:45:22;;;;;;;57.17;35.93;;;;;;;;;;5029262;28;38718;-77
2021/04/20 02:47:48;;;;;;;52.97;33.67;;;;;;;;;;5043915;28;40067;-78
2021/04/20 02:50:16;;;;;;;53.00;33.87;;;;;;;;;;5049996;28;39857;-77
2021/04/20 02:52:43;;;;;;;46.93;33.07;;;;;;;;;;5025379;28;38907;-77
2021/04/20 02:55:11;;;;;;;53.10;35.17;;;;;;;;;;5046474;28;37297;-76
2021/04/20 02:57:43;;;;;;;52.03;34.77;;;;;;;;;;5046555;28;39989;-78
2021/04/20 03:00:14;;;;;;;47.63;32.63;;;;;;;;;;5048214;28;40440;-77
2021/04/20 03:02:42;;;;;;;43.83;30.90;;;;;;;;;;5049956;28;37760;-77
2021/04/20 03:05:10;;;;;;;52.97;34.90;;;;;;;;;;5042178;28;37452;-77
2021/04/20 03:07:37;;;;;;;53.13;35.87;;;;;;;;;;5030904;28;41439;-77
2021/04/20 03:10:04;;;;;;;47.53;32.63;;;;;;;;;;5050737;28;38888;-78
2021/04/20 03:12:31;;;;;;;49.10;31.80;;;;;;;;;;5033388;28;39510;-78
2021/04/20 03:14:59;;;;;;;45.07;29.93;;;;;;;;;;5051123;28;36984;-77
2021/04/20 03:17:25;;;;;;;49.03;34.13;;;;;;;;;;5027908;28;39754;-77
2021/04/20 03:19:52;;;;;;;56.37;36.87;;;;;;;;;;5038733;28;39001;-77
2021/04/20 03:22:19;;;;;;;48.30;33.70;;;;;;;;;;5026543;28;37986;-78
2021/04/20 03:25:03;;;;;;;52.03;33.47;;;;;;;;;;5044320;28;36822;-77
2021/04/20 03:27:30;;;;;;;60.30;35.73;;;;;;;;;;5035051;28;47040;-77
2021/04/20 03:29:56;;;;;;;48.93;34.53;;;;;;;;;;5038029;28;39642;-77
2021/04/20 03:32:23;;;;;;;53.73;34.73;;;;;;;;;;5038346;28;38567;-77
2021/04/20 03:34:53;;;;;;;45.47;31.47;;;;;;;;;;5043998;28;39434;-77
2021/04/20 03:37:24;;;;;;;50.97;34.30;;;;;;;;;;5041696;28;39172;-77
2021/04/20 03:39:52;;;;;;;51.33;35.00;;;;;;;;;;5038504;28;38934;-77
2021/04/20 03:42:23;;;;;;;56.87;36.27;;;;;;;;;;5040826;28;40443;-77
2021/04/20 03:44:51;;;;;;;60.23;36.73;;;;;;;;;;5047323;28;38219;-77
2021/04/20 03:47:23;;;;;;;53.40;34.57;;;;;;;;;;5022659;28;35877;-77
2021/04/20 03:49:50;;;;;;;60.50;37.17;;;;;;;;;;5040056;28;38860;-77
2021/04/20 03:52:23;;;;;;;53.17;35.27;;;;;;;;;;5046228;28;39196;-77
2021/04/20 03:54:49;;;;;;;;;;;;;;;;;;5054096;28;37488;-77
2021/04/20 03:57:16;;;;;;;57.43;35.63;;;;;;;;;;5039755;28;37972;-78
2021/04/20 03:59:44;;;;;;;55.97;35.77;;;;;;;;;;5039529;28;39207;-77
2021/04/20 04:02:11;;;;;;;49.33;33.33;;;;;;;;;;5037490;28;38831;-77
2021/04/20 04:04:39;;;;;;;59.43;36.63;;;;;;;;;;5042862;28;37897;-77
2021/04/20 04:07:05;;;;;;;55.73;36.27;;;;;;;;;;5040192;28;40151;-78
2021/04/20 04:09:32;;;;;;;53.60;34.43;;;;;;;;;;5042592;28;39172;-77
2021/04/20 04:12:01;;;;;;;58.47;36.93;;;;;;;;;;5038339;28;39986;-76
2021/04/20 04:14:28;;;;;;;51.53;34.27;;;;;;;;;;5043959;28;49565;-77
2021/04/20 04:17:00;;;;;;;51.30;33.57;;;;;;;;;;5037535;28;39330;-77
2021/04/20 04:19:31;;;;;;;56.83;35.53;;;;;;;;;;5021513;28;39000;-77
2021/04/20 04:22:00;;;;;;;53.50;35.27;;;;;;;;;;5043585;28;39508;-77
2021/04/20 04:24:29;;;;;;;50.90;33.33;;;;;;;;;;5046053;28;38573;-77
2021/04/20 04:26:58;;;;;;;56.40;36.33;;;;;;;;;;5036484;28;39454;-77
2021/04/20 04:29:25;;;;;;;51.73;34.50;;;;;;;;;;5041339;28;38973;-77
2021/04/20 04:31:51;;;;;;;56.07;34.73;;;;;;;;;;5047377;28;38771;-77
2021/04/20 04:34:18;;;;;;;54.07;34.10;;;;;;;;;;5044352;28;37771;-77
2021/04/20 04:36:46;;;;;;;54.10;35.00;;;;;;;;;;5037339;28;40486;-77
2021/04/20 04:39:18;;;;;;;57.77;36.37;;;;;;;;;;5048314;28;39925;-76
2021/04/20 04:41:47;;;;;;;56.38;34.33;;;;;;;;;;5040967;28;38947;-77
2021/04/20 04:44:13;;;;;;;56.43;35.37;;;;;;;;;;5044759;28;37640;-77
2021/04/20 04:46:44;;;;;;;62.87;39.37;;;;;;;;;;5021983;28;40338;-77
2021/04/20 04:49:11;;;;;;;56.93;36.03;;;;;;;;;;5026711;28;40418;-76
2021/04/20 04:51:38;;;;;;;72.30;42.53;;;;;;;;;;5042612;28;39114;-76
2021/04/20 04:54:05;;;;;;;65.03;38.77;;;;;;;;;;5043665;28;37628;-76
2021/04/20 04:56:33;;;;;;;73.90;43.63;;;;;;;;;;5022707;28;39606;-77
2021/04/20 04:59:00;;;;;;;61.87;37.03;;;;;;;;;;5041660;28;39545;-77
2021/04/20 05:01:27;;;;;;;66.67;41.13;;;;;;;;;;5022219;28;38714;-77
2021/04/20 05:03:53;;;;;;;79.97;42.83;;;;;;;;;;5041490;28;38156;-77
2021/04/20 05:06:21;;;;;;;67.83;39.60;;;;;;;;;;5025596;28;39413;-77
2021/04/20 05:08:47;;;;;;;63.07;37.40;;;;;;;;;;5042829;28;39122;-77
2021/04/20 05:11:14;;;;;;;64.40;38.03;;;;;;;;;;5024213;28;38981;-77
2021/04/20 05:13:40;;;;;;;72.67;40.60;;;;;;;;;;5047975;28;38938;-78
2021/04/20 05:16:07;;;;;;;64.50;39.50;;;;;;;;;;5041954;28;39268;-78
2021/04/20 05:18:35;;;;;;;58.77;35.43;;;;;;;;;;5043440;28;37720;-77
2021/04/20 05:21:01;;;;;;;57.50;35.93;;;;;;;;;;5046805;28;38523;-78
2021/04/20 05:23:28;;;;;;;61.13;36.00;;;;;;;;;;5030020;28;47177;-78
2021/04/20 05:25:54;;;;;;;56.77;35.70;;;;;;;;;;5028639;28;39679;-77
2021/04/20 05:28:21;;;;;;;69.70;42.83;;;;;;;;;;5043311;28;39105;-77
2021/04/20 05:30:48;;;;;;;68.07;40.10;;;;;;;;;;5027108;28;39460;-77
2021/04/20 05:33:15;;;;;;;70.77;40.07;;;;;;;;;;5042800;28;37090;-77
2021/04/20 05:35:42;;;;;;;76.73;43.90;;;;;;;;;;5043580;28;40843;-77
2021/04/20 05:38:08;;;;;;;69.93;41.00;;;;;;;;;;5027729;28;40188;-77
2021/04/20 05:40:38;;;;;;;76.30;44.07;;;;;;;;;;5041131;28;40239;-77
2021/04/20 05:43:07;;;;;;;85.20;44.53;;;;;;;;;;5045866;28;37211;-77
2021/04/20 05:45:34;;;;;;;83.40;46.57;;;;;;;;;;5028639;28;37465;-77
2021/04/20 05:48:01;;;;;;;88.97;47.57;;;;;;;;;;5049864;28;38036;-77
2021/04/20 05:50:31;;;;;;;85.37;47.77;;;;;;;;;;5028532;28;45365;-77
2021/04/20 05:52:59;;;;;;;84.57;44.87;;;;;;;;;;5040426;28;36700;-77
2021/04/20 05:55:26;;;;;;;86.73;47.70;;;;;;;;;;5044433;28;40521;-77
2021/04/20 05:57:53;;;;;;;87.23;48.10;;;;;;;;;;5046113;28;40141;-78
2021/04/20 06:00:20;;;;;;;87.83;48.73;;;;;;;;;;5044196;28;37152;-78
2021/04/20 06:02:47;;;;;;;93.67;51.83;;;;;;;;;;5027894;28;37782;-78
2021/04/20 06:05:15;;;;;;;104.30;54.33;;;;;;;;;;5043963;28;38981;-78
2021/04/20 06:07:46;;;;;;;82.47;47.97;;;;;;;;;;5034744;28;39290;-79
2021/04/20 06:10:13;;;;;;;82.00;47.33;;;;;;;;;;5046880;28;40508;-76
2021/04/20 06:12:40;;;;;;;91.97;51.33;;;;;;;;;;5016139;28;37890;-76
2021/04/20 06:15:08;;;;;;;100.03;55.03;;;;;;;;;;5035599;28;37926;-76
2021/04/20 06:17:35;;;;;;;101.50;54.83;;;;;;;;;;5046013;28;39230;-76
2021/04/20 06:20:02;;;;;;;108.70;56.37;;;;;;;;;;5047233;28;39443;-77
2021/04/20 06:22:28;;;;;;;104.27;58.30;;;;;;;;;;5049488;28;48960;-76
2021/04/20 06:24:55;;;;;;;115.00;62.43;;;;;;;;;;5046547;28;39801;-76
2021/04/20 06:27:21;;;;;;;113.50;63.40;;;;;;;;;;5044124;28;39932;-76
2021/04/20 06:29:47;;;;;;;121.40;64.77;;;;;;;;;;5042150;28;38892;-76
2021/04/20 06:32:14;;;;;;;101.67;58.67;;;;;;;;;;5043105;28;36997;-76
2021/04/20 06:34:41;;;;;;;97.33;59.37;;;;;;;;;;5045627;28;41312;-76
2021/04/20 06:37:08;;;;;;;95.27;58.10;;;;;;;;;;5039776;28;39498;-76
2021/04/20 06:39:35;;;;;;;100.47;60.03;;;;;;;;;;5050219;28;39092;-76
2021/04/20 06:42:02;;;;;;;99.33;60.20;;;;;;;;;;5046261;28;37288;-76
2021/04/20 06:44:33;;;;;;;106.23;63.00;;;;;;;;;;5038318;28;37364;-75
2021/04/20 06:47:03;;;;;;;97.80;57.93;;;;;;;;;;5021637;28;39392;-77
2021/04/20 06:49:42;;;;;;;97.57;57.73;;;;;;;;;;5041391;28;48349;-77
2021/04/20 06:52:13;;;;;;;100.23;59.20;;;;;;;;;;5028305;28;37624;-77
2021/04/20 06:54:45;;;;;;;97.10;58.40;;;;;;;;;;5038290;28;37887;-78
2021/04/20 06:57:23;;;;;;;100.70;57.70;;;;;;;;;;5026358;28;40096;-77
2021/04/20 07:00:04;;;;;;;98.90;60.43;;;;;;;;;;5036412;28;39028;-76
2021/04/20 07:02:49;;;;;;;92.67;57.10;;;;;;;;;;5016993;28;47180;-76
2021/04/20 07:05:39;;;;;;;90.03;57.05;;;;;;;;;;5040902;28;39147;-76
2021/04/20 07:08:05;;;;;;;92.00;55.00;;;;;;;;;;5022556;28;38514;-76
2021/04/20 07:10:37;;;;;;;89.75;56.83;;;;;;;;;;5021151;28;38460;-75
2021/04/20 07:13:13;;;;;;;87.63;53.22;;;;;;;;;;5030361;28;38773;-76
2021/04/20 07:15:48;;;;;;;83.53;54.28;;;;;;;;;;5037732;28;40432;-76
2021/04/20 07:18:24;;;;;;;82.18;52.60;;;;;;;;;;5035209;28;39917;-77
2021/04/20 07:21:10;;;;;;;75.75;49.17;;;;;;;;;;5025995;28;39480;-76
2021/04/20 07:24:00;;;;;;;84.15;55.75;;;;;;;;;;5034152;28;47154;-76
2021/04/20 07:26:27;;;;;;;79.47;52.10;;;;;;;;;;5040649;28;47676;-76
2021/04/20 07:28:53;;;;;;;72.47;48.30;;;;;;;;;;5038685;28;41855;-76
2021/04/20 07:31:28;;;;;;;79.53;49.78;;;;;;;;;;5035607;28;38181;-77
2021/04/20 07:34:01;;;;;;;74.95;50.53;;;;;;;;;;5040407;28;36908;-77
2021/04/20 07:36:56;;;;;;;72.30;49.30;;;;;;;;;;5037039;28;48757;-76
2021/04/20 07:39:25;;;;;;;78.03;51.75;;;;;;;;;;4994794;28;39686;-78
2021/04/20 07:42:07;;;;;;;75.15;48.42;;;;;;;;;;5037923;28;38452;-78
2021/04/20 07:44:33;;;;;;;74.97;48.78;;;;;;;;;;5033479;28;48398;-77
2021/04/20 07:47:06;;;;;;;65.38;46.08;;;;;;;;;;5032607;28;40486;-78
2021/04/20 07:49:51;;;;;;;75.70;50.50;;;;;;;;;;5034766;28;47708;-78
2021/04/20 07:52:30;;;;;;;69.78;46.88;;;;;;;;;;5037851;28;40736;-79
2021/04/20 07:55:09;;;;;;;73.72;48.63;;;;;;;;;;5044299;28;35378;-79
2021/04/20 07:57:41;;;;;;;64.40;46.53;;;;;;;;;;5044220;28;48708;-79
2021/04/20 08:00:13;;;;;;;64.30;45.30;;;;;;;;;;5040761;28;39185;-79
2021/04/20 08:02:45;;;;;;;68.55;46.33;;;;;;;;;;5039430;28;37355;-80
2021/04/20 08:05:23;;;;;;;65.30;45.42;;;;;;;;;;5039063;28;37629;-77
2021/04/20 08:08:00;;;;;;;66.18;46.08;;;;;;;;;;5032861;28;39760;-80
2021/04/20 08:10:31;;;;;;;66.00;44.92;;;;;;;;;;5032418;28;42993;-79
2021/04/20 08:13:06;;;;;;;60.78;43.55;;;;;;;;;;5037719;28;37973;-79
2021/04/20 08:15:32;;;;;;;59.88;44.65;;;;;;;;;;5021033;28;45477;-79
2021/04/20 08:18:02;;;;;;;61.40;43.05;;;;;;;;;;5020347;28;36890;-79
2021/04/20 08:20:29;;;;;;;65.43;44.45;;;;;;;;;;5037168;28;46252;-80
2021/04/20 08:22:57;;;;;;;57.20;42.03;;;;;;;;;;5035357;28;39155;-79
2021/04/20 08:25:25;;;;;;;56.53;40.33;;;;;;;;;;5042530;28;36952;-80
2021/04/20 08:28:10;;;;;;;64.75;44.35;;;;;;;;;;5041718;28;39146;-79
2021/04/20 08:30:46;;;;;;;58.45;43.42;;;;;;;;;;5034166;28;48913;-79
2021/04/20 08:33:19;;;;;;;56.85;41.50;;;;;;;;;;5022066;28;39542;-80
2021/04/20 08:35:49;;;;;;;57.33;41.58;;;;;;;;;;5039360;28;37145;-80
2021/04/20 08:38:34;;;;;;;61.05;42.05;;;;;;;;;;5022643;28;39799;-80
2021/04/20 08:41:07;;;;;;;56.83;40.55;;;;;;;;;;5020379;28;37899;-79
2021/04/20 08:43:53;;;;;;;64.40;42.70;;;;;;;;;;5040805;28;48641;-79
2021/04/20 08:46:38;;;;;;;60.10;42.08;;;;;;;;;;5039252;28;37714;-79
2021/04/20 08:49:23;;;;;;;53.65;40.17;;;;;;;;;;5037233;28;37902;-79
2021/04/20 08:51:57;;;;;;;53.33;39.72;;;;;;;;;;5024302;28;39575;-79
2021/04/20 08:54:36;;;;;;;53.72;40.17;;;;;;;;;;5041200;28;39263;-79
2021/04/20 08:57:05;;;;;;;59.63;42.45;;;;;;;;;;5035057;28;37550;-79
2021/04/20 08:59:55;;;;;;;53.83;38.60;;;;;;;;;;5042616;28;39843;-78
2021/04/20 09:02:29;;;;;;;51.25;40.10;;;;;;;;;;5024427;28;39441;-79
2021/04/20 09:04:59;;;;;;;51.00;39.65;;;;;;;;;;5042779;28;39444;-79
2021/04/20 09:07:26;;;;;;;52.03;41.20;;;;;;;;;;5054594;28;37521;-79
2021/04/20 09:09:54;;;;;;;53.42;39.75;;;;;;;;;;5045949;28;38829;-79
2021/04/20 09:12:22;;;;;;;53.53;40.28;;;;;;;;;;5047692;28;39618;-79
2021/04/20 09:14:49;;;;;;;49.97;38.13;;;;;;;;;;5048013;28;40016;-79
2021/04/20 09:17:20;;;;;;;54.85;40.00;;;;;;;;;;5048353;28;36640;-80
2021/04/20 09:19:46;;;;;;;50.45;39.38;;;;;;;;;;5031122;28;39482;-79
2021/04/20 09:22:25;;;;;;;51.15;38.22;;;;;;;;;;5042823;28;40447;-78
2021/04/20 09:24:57;;;;;;;47.70;36.45;;;;;;;;;;5035988;28;36606;-79
2021/04/20 09:27:43;;;;;;;43.97;35.42;;;;;;;;;;5031577;28;37540;-79
2021/04/20 09:30:14;;;;;;;51.53;39.00;;;;;;;;;;5025962;28;37845;-79
2021/04/20 09:32:45;;;;;;;50.25;38.95;;;;;;;;;;5031389;28;39292;-78
2021/04/20 09:35:13;;;;;;;57.42;38.40;;;;;;;;;;5045194;28;39181;-79
2021/04/20 09:37:41;;;;;;;48.50;35.25;;;;;;;;;;5044907;28;35602;-81
2021/04/20 09:40:08;;;;;;;45.65;35.03;;;;;;;;;;5046270;28;38001;-79
2021/04/20 09:42:36;;;;;;;48.72;35.08;;;;;;;;;;5043170;28;39255;-81
2021/04/20 09:45:18;;;;;;;54.65;37.47;;;;;;;;;;5047161;28;39210;-81
2021/04/20 09:48:20;;;;;;;47.55;36.55;;;;;;;;;;5034401;28;46186;-81
2021/04/20 09:50:56;;;;;;;49.33;36.65;;;;;;;;;;4992297;28;47196;-80
2021/04/20 09:53:22;;;;;;;45.72;35.42;;;;;;;;;;5042513;28;39167;-81
2021/04/20 09:55:57;;;;;;;40.25;31.80;;;;;;;;;;5036885;28;37317;-81
2021/04/20 09:58:24;;;;;;;39.47;30.50;;;;;;;;;;5049406;28;38401;-81
2021/04/20 10:00:51;;;;;;;38.00;31.38;;;;;;;;;;5033985;28;38476;-80
2021/04/20 10:03:28;;;;;;;43.53;34.42;;;;;;;;;;5036579;28;38786;-80
2021/04/20 10:06:00;;;;;;;44.40;35.70;;;;;;;;;;5035647;28;38700;-80
2021/04/20 10:08:34;;;;;;;42.60;33.10;;;;;;;;;;5045202;28;37184;-80
2021/04/20 10:11:05;;;;;;;47.50;34.47;;;;;;;;;;5042308;28;38442;-79
2021/04/20 10:13:50;;;;;;;41.97;32.33;;;;;;;;;;5041413;28;48584;-81
2021/04/20 10:16:19;;;;;;;41.90;33.90;;;;;;;;;;5055447;28;37165;-80
2021/04/20 10:18:45;;;;;;;39.92;33.17;;;;;;;;;;5051968;28;38034;-80
2021/04/20 10:21:30;;;;;;;44.92;34.47;;;;;;;;;;5038423;28;37857;-80
2021/04/20 10:24:02;;;;;;;40.67;33.15;;;;;;;;;;5053928;28;39553;-81
2021/04/20 10:26:31;;;;;;;42.38;34.35;;;;;;;;;;5036287;28;47230;-80
2021/04/20 10:29:18;;;;;;;40.50;33.05;;;;;;;;;;5052196;28;35508;-81
2021/04/20 10:31:50;;;;;;;43.13;34.08;;;;;;;;;;5035498;28;47696;-80
2021/04/20 10:34:17;;;;;;;47.05;35.00;;;;;;;;;;5038918;28;38389;-81
2021/04/20 10:36:48;;;;;;;41.80;34.58;;;;;;;;;;5043097;28;36682;-80
2021/04/20 10:39:14;;;;;;;43.28;33.42;;;;;;;;;;5046506;28;37766;-82
2021/04/20 10:41:41;;;;;;;40.67;31.27;;;;;;;;;;5025212;28;38999;-82
2021/04/20 10:44:12;;;;;;;38.65;30.83;;;;;;;;;;5052771;28;39237;-80
2021/04/20 10:46:39;;;;;;;38.67;29.88;;;;;;;;;;5051139;28;38469;-80
2021/04/20 10:49:06;;;;;;;34.22;27.10;;;;;;;;;;5046989;28;37409;-81
2021/04/20 10:51:34;;;;;;;34.63;26.38;;;;;;;;;;5031559;28;37615;-80
2021/04/20 10:54:02;;;;;;;31.70;27.25;;;;;;;;;;5037015;28;40305;-81
2021/04/20 10:56:29;;;;;;;28.60;24.67;;;;;;;;;;5044474;28;50481;-81
2021/04/20 10:58:57;;;;;;;30.52;26.52;;;;;;;;;;5042260;28;36960;-81
2021/04/20 11:01:27;;;;;;;33.75;26.63;;;;;;;;;;5044110;28;39941;-80
2021/04/20 11:03:54;;;;;;;30.75;27.08;;;;;;;;;;5045472;28;41376;-80
2021/04/20 11:06:20;;;;;;;31.08;26.38;;;;;;;;;;5047256;28;37782;-81
2021/04/20 11:08:47;;;;;;;32.58;25.48;;;;;;;;;;5049030;28;35827;-80
2021/04/20 11:11:20;;;;;;;30.15;24.77;;;;;;;;;;5054772;28;39786;-80
2021/04/20 11:13:48;;;;;;;25.58;22.33;;;;;;;;;;5068823;28;39784;-80
2021/04/20 11:16:16;;;;;;;25.40;21.75;;;;;;;;;;5050180;28;38653;-78
2021/04/20 11:18:44;;;;;;;26.00;22.58;;;;;;;;;;5044990;28;37262;-79
2021/04/20 11:21:18;;;;;;;24.27;21.33;;;;;;;;;;5043262;28;37770;-80
2021/04/20 11:23:50;;;;;;;28.42;21.10;;;;;;;;;;5044036;28;37476;-79
2021/04/20 11:26:16;;;;;;;;;;;;;;;;;;5029401;28;38454;-79
2021/04/20 11:28:43;;;;;;;24.73;19.75;;;;;;;;;;5043766;28;36137;-79
2021/04/20 11:31:28;;;;;;;26.73;20.80;;;;;;;;;;5045826;28;38969;-80
2021/04/20 11:34:08;;;;;;;24.30;20.88;;;;;;;;;;5040918;28;38220;-80
2021/04/20 11:36:42;;;;;;;26.42;19.98;;;;;;;;;;5045188;28;49102;-81
2021/04/20 11:39:10;;;;;;;24.70;21.45;;;;;;;;;;5044787;28;36983;-82
2021/04/20 11:41:42;;;;;;;22.90;18.75;;;;;;;;;;5046704;28;37763;-81
2021/04/20 11:44:10;;;;;;;21.70;19.45;;;;;;;;;;5035609;28;38847;-82
2021/04/20 11:46:38;;;;;;;24.92;20.27;;;;;;;;;;5035644;28;37505;-81
2021/04/20 11:49:26;;;;;;;24.50;19.13;;;;;;;;;;5029162;28;37400;-82
2021/04/20 11:51:55;;;;;;;21.83;18.33;;;;;;;;;;5037398;28;39970;-79
2021/04/20 11:54:23;;;;;;;21.30;17.52;;;;;;;;;;5026431;28;37678;-82
2021/04/20 11:56:50;;;;;;;19.85;17.52;;;;;;;;;;5033814;28;39581;-82
2021/04/20 11:59:20;;;;;;;21.42;17.55;;;;;;;;;;5028611;28;37094;-82
2021/04/20 12:01:48;;;;;;;18.92;16.50;;;;;;;;;;5017123;28;37892;-83
2021/04/20 12:04:15;;;;;;;20.83;17.92;;;;;;;;;;5038653;28;37938;-83
2021/04/20 12:06:48;;;;;;;17.55;15.85;;;;;;;;;;5024107;28;41320;-82
2021/04/20 12:09:16;;;;;;;18.10;15.57;;;;;;;;;;5044120;28;35802;-81
2021/04/20 12:11:45;;;;;;;15.80;14.20;;;;;;;;;;5043191;28;39666;-81
2021/04/20 12:14:12;;;;;;;14.98;13.48;;;;;;;;;;5030891;28;38430;-83
2021/04/20 12:16:39;;;;;;;16.63;14.80;;;;;;;;;;5036737;28;39604;-81
2021/04/20 12:19:06;;;;;;;16.23;14.52;;;;;;;;;;5034304;28;36139;-81
2021/04/20 12:21:37;;;;;;;17.27;14.43;;;;;;;;;;5041749;28;37606;-81
2021/04/20 12:24:05;;;;;;;17.67;15.75;;;;;;;;;;5039706;28;37841;-81
2021/04/20 12:26:32;;;;;;;17.20;15.40;;;;;;;;;;5039228;28;38366;-81
2021/04/20 12:28:59;;;;;;;23.02;18.23;;;;;;;;;;5042928;28;39131;-81
2021/04/20 12:31:33;;;;;;;21.58;16.92;;;;;;;;;;5034195;28;38812;-81
2021/04/20 12:34:00;;;;;;;22.05;15.85;;;;;;;;;;5035486;28;39403;-82
2021/04/20 12:36:28;;;;;;;20.52;18.05;;;;;;;;;;5019002;28;38681;-82
2021/04/20 12:38:56;;;;;;;20.30;16.25;;;;;;;;;;5030336;28;36082;-83
2021/04/20 12:41:24;;;;;;;23.55;19.40;;;;;;;;;;5042163;28;20072;-80
2021/04/20 12:43:52;;;;;;;23.83;21.33;;;;;;;;;;5053255;28;39889;-83
2021/04/20 12:46:24;;;;;;;23.73;20.17;;;;;;;;;;5019415;28;39705;-80
2021/04/20 12:48:54;;;;;;;24.85;21.02;;;;;;;;;;5043095;28;38057;-80
2021/04/20 12:51:21;;;;;;;22.50;19.90;;;;;;;;;;5045698;28;39108;-80
2021/04/20 12:53:49;;;;;;;20.55;18.38;;;;;;;;;;5026215;28;37732;-80
2021/04/20 12:56:41;;;;;;;23.98;21.45;;;;;;;;;;5047608;28;38459;-81
2021/04/20 12:59:09;;;;;;;24.55;20.05;;;;;;;;;;5023654;28;37719;-80
2021/04/20 13:01:37;;;;;;;21.75;19.05;;;;;;;;;;5039143;28;38805;-79
2021/04/20 13:04:04;;;;;;;24.52;21.42;;;;;;;;;;5042027;28;39372;-79
2021/04/20 13:06:31;;;;;;;23.05;19.48;;;;;;;;;;5037163;28;38735;-79
2021/04/20 13:08:58;;;;;;;24.02;20.42;;;;;;;;;;5042985;28;37888;-80
2021/04/20 13:11:24;;;;;;;29.35;23.50;;;;;;;;;;5050905;28;40078;-79
2021/04/20 13:13:51;;;;;;;32.13;25.00;;;;;;;;;;5048492;28;38548;-79
2021/04/20 13:16:22;;;;;;;29.10;25.13;;;;;;;;;;5052973;28;39266;-80
2021/04/20 13:18:49;;;;;;;30.75;25.35;;;;;;;;;;5047725;28;35404;-79
2021/04/20 13:21:16;;;;;;;27.13;22.20;;;;;;;;;;5045573;28;39732;-80
2021/04/20 13:23:46;;;;;;;24.63;20.88;;;;;;;;;;5047642;28;39153;-78
2021/04/20 13:26:17;;;;;;;24.98;21.40;;;;;;;;;;5010945;28;39232;-78
2021/04/20 13:28:45;;;;;;;28.10;23.13;;;;;;;;;;5042821;28;36631;-78
2021/04/20 13:31:13;;;;;;;32.53;24.70;;;;;;;;;;5038552;28;39013;-79
2021/04/20 13:33:43;;;;;;;35.90;29.65;;;;;;;;;;5029884;28;40163;-79
2021/04/20 13:36:10;;;;;;;40.40;30.65;;;;;;;;;;5044015;28;39962;-80
2021/04/20 13:38:37;;;;;;;42.88;34.65;;;;;;;;;;5041149;28;37750;-79
2021/04/20 13:41:05;;;;;;;45.38;35.17;;;;;;;;;;5045632;28;39848;-79
2021/04/20 13:43:32;;;;;;;49.08;36.17;;;;;;;;;;5048795;28;39730;-79
2021/04/20 13:46:09;;;;;;;49.97;35.22;;;;;;;;;;5047280;28;40569;-79
2021/04/20 13:48:35;;;;;;;48.33;36.28;;;;;;;;;;5044361;28;46885;-79
2021/04/20 13:51:01;;;;;;;48.45;37.63;;;;;;;;;;5049587;28;38919;-79
2021/04/20 13:53:33;;;;;;;50.13;36.53;;;;;;;;;;5046651;28;39578;-79
2021/04/20 13:56:08;;;;;;;53.33;38.15;;;;;;;;;;5040633;28;38555;-79
2021/04/20 13:58:41;;;;;;;48.28;36.47;;;;;;;;;;5050413;28;48605;-79
2021/04/20 14:01:08;;;;;;;46.95;37.05;;;;;;;;;;5048310;28;41011;-79
2021/04/20 14:03:48;;;;;;;49.92;37.67;;;;;;;;;;5044836;28;39249;-79
2021/04/20 14:06:15;;;;;;;48.70;36.65;;;;;;;;;;5046995;28;38762;-79
2021/04/20 14:08:43;;;;;;;46.92;35.22;;;;;;;;;;5049599;28;35478;-79
2021/04/20 14:11:10;;;;;;;49.33;37.53;;;;;;;;;;5047813;28;39365;-80
2021/04/20 14:13:42;;;;;;;47.75;37.50;;;;;;;;;;5041424;28;39236;-78
2021/04/20 14:16:10;;;;;;;46.22;36.58;;;;;;;;;;5041429;28;40150;-80
2021/04/20 14:18:37;;;;;;;46.53;36.22;;;;;;;;;;5048828;28;37190;-80
2021/04/20 14:21:11;;;;;;;48.00;35.83;;;;;;;;;;5044586;28;40209;-81
2021/04/20 14:23:42;;;;;;;43.78;34.40;;;;;;;;;;5044077;28;39175;-80
2021/04/20 14:26:15;;;;;;;44.63;34.00;;;;;;;;;;5038138;28;39135;-80
2021/04/20 14:28:41;;;;;;;47.05;35.95;;;;;;;;;;5046394;28;37844;-79
2021/04/20 14:31:08;;;;;;;47.70;35.58;;;;;;;;;;5046004;28;39896;-78